createdAt,value
2023-04-11T00:01:14.809Z,1.60
2023-04-11T00:03:41.702Z,1.40
2023-04-11T00:06:08.621Z,1.58
2023-04-11T00:08:35.207Z,1.95
2023-04-11T00:11:01.817Z,1.90
2023-04-11T00:13:28.491Z,1.67
2023-04-11T00:15:55.728Z,1.92
2023-04-11T00:18:22.976Z,1.55
2023-04-11T00:20:49.670Z,2.42
2023-04-11T00:23:16.360Z,2.55
2023-04-11T00:25:43.117Z,2.33
2023-04-11T00:28:10.429Z,2.40
2023-04-11T00:30:37.143Z,2.17
2023-04-11T00:33:04.046Z,1.92
2023-04-11T00:35:34.497Z,2.90
2023-04-11T00:38:02.141Z,2.50
2023-04-11T00:40:28.868Z,2.85
2023-04-11T00:42:56.508Z,2.35
2023-04-11T00:45:23.233Z,2.80
2023-04-11T00:47:50.581Z,3.03
2023-04-11T00:50:18.298Z,3.22
2023-04-11T00:52:49.529Z,2.35
2023-04-11T00:55:16.587Z,2.00
2023-04-11T00:57:44.571Z,2.58
2023-04-11T01:00:12.074Z,2.72
2023-04-11T01:02:42.984Z,3.05
2023-04-11T01:05:11.231Z,2.65
2023-04-11T01:07:39.198Z,3.25
2023-04-11T01:10:06.869Z,2.90
2023-04-11T01:12:34.835Z,2.63
2023-04-11T01:15:01.746Z,2.65
2023-04-11T01:17:28.726Z,3.20
2023-04-11T01:19:55.441Z,3.60
2023-04-11T01:22:23.134Z,2.90
2023-04-11T01:24:50.576Z,2.45
2023-04-11T01:27:17.488Z,2.90
2023-04-11T01:29:44.103Z,3.50
2023-04-11T01:32:10.717Z,3.60
2023-04-11T01:34:40.914Z,3.13
2023-04-11T01:37:07.961Z,4.00
2023-04-11T01:39:34.603Z,3.38
2023-04-11T01:42:03.458Z,3.33
2023-04-11T01:44:32.077Z,2.47
2023-04-11T01:46:59.225Z,3.13
2023-04-11T01:49:26.330Z,3.35
2023-04-11T01:51:53.029Z,3.50
2023-04-11T01:54:19.686Z,3.35
2023-04-11T01:56:46.767Z,2.97
2023-04-11T01:59:13.442Z,2.75
2023-04-11T02:01:43.211Z,3.17
2023-04-11T02:04:10.511Z,4.13
2023-04-11T02:06:38.531Z,4.30
2023-04-11T02:09:05.111Z,3.78
2023-04-11T02:11:31.748Z,3.67
2023-04-11T02:13:58.344Z,3.60
2023-04-11T02:16:25.720Z,3.85
2023-04-11T02:18:52.961Z,3.33
2023-04-11T02:21:19.545Z,3.65
2023-04-11T02:23:46.123Z,4.32
2023-04-11T02:26:12.737Z,3.38
2023-04-11T02:28:39.352Z,3.65
2023-04-11T02:31:06.332Z,3.47
2023-04-11T02:33:32.930Z,4.55
2023-04-11T02:35:59.589Z,3.67
2023-04-11T02:38:26.446Z,4.22
2023-04-11T02:40:53.012Z,3.70
2023-04-11T02:43:19.610Z,4.53
2023-04-11T02:45:46.707Z,4.03
2023-04-11T02:48:13.827Z,4.72
2023-04-11T02:50:40.832Z,3.88
2023-04-11T02:53:07.693Z,3.42
2023-04-11T02:55:34.882Z,3.05
2023-04-11T02:58:01.600Z,4.28
2023-04-11T03:00:29.148Z,3.45
2023-04-11T03:02:56.731Z,3.30
2023-04-11T03:05:23.508Z,3.28
2023-04-11T03:07:50.229Z,3.20
2023-04-11T03:10:16.870Z,3.53
2023-04-11T03:12:43.461Z,4.15
2023-04-11T03:15:10.549Z,3.42
2023-04-11T03:17:37.307Z,4.55
2023-04-11T03:20:07.080Z,4.18
2023-04-11T03:22:33.743Z,4.18
2023-04-11T03:25:00.506Z,4.03
2023-04-11T03:27:27.289Z,4.82
2023-04-11T03:29:53.953Z,4.47
2023-04-11T03:32:20.605Z,5.32
2023-04-11T03:34:47.177Z,4.40
2023-04-11T03:37:13.751Z,4.82
2023-04-11T03:39:40.354Z,4.70
2023-04-11T03:42:06.995Z,4.55
2023-04-11T03:44:33.610Z,4.85
2023-04-11T03:47:00.269Z,4.50
2023-04-11T03:49:26.895Z,4.10
2023-04-11T03:51:53.467Z,4.85
2023-04-11T03:54:20.378Z,4.45
2023-04-11T03:56:46.947Z,4.95
2023-04-11T03:59:13.608Z,5.10
2023-04-11T04:01:40.328Z,3.83
2023-04-11T04:04:07.604Z,3.95
2023-04-11T04:06:34.400Z,2.92
2023-04-11T04:09:01.011Z,3.63
2023-04-11T04:11:27.623Z,3.85
2023-04-11T04:13:55.444Z,3.53
2023-04-11T04:16:22.456Z,4.15
2023-04-11T04:18:49.202Z,2.80
2023-04-11T04:21:16.586Z,4.15
2023-04-11T04:23:47.271Z,4.03
2023-04-11T04:26:16.203Z,3.60
2023-04-11T04:28:46.461Z,4.07
2023-04-11T04:31:15.370Z,4.07
2023-04-11T04:33:42.827Z,3.53
2023-04-11T04:36:12.240Z,3.95
2023-04-11T04:38:42.072Z,3.78
2023-04-11T04:41:14.833Z,4.70
2023-04-11T04:43:42.529Z,4.13
2023-04-11T04:46:10.822Z,4.70
2023-04-11T04:48:37.539Z,2.90
2023-04-11T04:51:05.498Z,4.10
2023-04-11T04:53:34.590Z,4.15
2023-04-11T04:56:02.133Z,4.60
2023-04-11T04:58:28.781Z,4.28
2023-04-11T05:00:55.926Z,4.13
2023-04-11T05:03:23.364Z,4.50
2023-04-11T05:05:50.474Z,3.42
2023-04-11T05:08:19.488Z,4.40
2023-04-11T05:10:46.132Z,4.13
2023-04-11T05:13:12.745Z,5.15
2023-04-11T05:15:39.351Z,4.20
2023-04-11T05:18:06.174Z,3.90
2023-04-11T05:20:33.230Z,3.42
2023-04-11T05:22:59.804Z,3.80
2023-04-11T05:25:27.025Z,4.18
2023-04-11T05:27:53.699Z,4.28
2023-04-11T05:30:20.463Z,4.32
2023-04-11T05:32:47.626Z,3.83
2023-04-11T05:35:14.391Z,4.38
2023-04-11T05:37:42.897Z,4.15
2023-04-11T05:40:09.947Z,4.40
2023-04-11T05:42:36.600Z,4.22
2023-04-11T05:45:03.252Z,3.85
2023-04-11T05:47:29.878Z,3.47
2023-04-11T05:49:56.482Z,4.13
2023-04-11T05:52:23.213Z,4.70
2023-04-11T05:54:49.856Z,4.07
2023-04-11T05:57:17.446Z,4.82
2023-04-11T05:59:44.116Z,4.75
2023-04-11T06:02:10.871Z,3.40
2023-04-11T06:04:37.981Z,4.70
2023-04-11T06:07:04.839Z,4.78
2023-04-11T06:09:33.463Z,4.38
2023-04-11T06:12:01.342Z,4.65
2023-04-11T06:14:27.914Z,4.22
2023-04-11T06:16:54.552Z,4.43
2023-04-11T06:19:21.179Z,5.30
2023-04-11T06:21:47.780Z,4.97
2023-04-11T06:24:18.411Z,4.10
2023-04-11T06:26:45.453Z,4.32
2023-04-11T06:29:12.054Z,4.63
2023-04-11T06:31:40.249Z,4.32
2023-04-11T06:34:06.872Z,3.95
2023-04-11T06:36:33.466Z,3.78
2023-04-11T06:39:00.200Z,4.43
2023-04-11T06:41:26.782Z,3.95
2023-04-11T06:43:53.374Z,4.00
2023-04-11T06:46:19.977Z,4.35
2023-04-11T06:48:47.703Z,4.05
2023-04-11T06:51:14.281Z,3.85
2023-04-11T06:53:41.003Z,4.25
2023-04-11T06:56:08.287Z,3.53
2023-04-11T06:58:34.934Z,4.15
2023-04-11T07:01:01.570Z,4.20
2023-04-11T07:03:28.324Z,3.47
2023-04-11T07:05:55.118Z,4.10
2023-04-11T07:08:21.718Z,3.35
2023-04-11T07:10:48.275Z,3.13
2023-04-11T07:13:15.339Z,3.47
2023-04-11T07:15:41.944Z,3.45
2023-04-11T07:18:08.641Z,3.40
2023-04-11T07:20:36.016Z,3.53
2023-04-11T07:23:03.305Z,3.35
2023-04-11T07:25:36.769Z,3.83
2023-04-11T07:28:07.078Z,4.43
2023-04-11T07:30:34.980Z,3.45
2023-04-11T07:33:02.097Z,3.03
2023-04-11T07:35:29.032Z,3.17
2023-04-11T07:37:57.393Z,3.47
2023-04-11T07:40:24.229Z,3.03
2023-04-11T07:42:50.844Z,3.10
2023-04-11T07:45:17.495Z,2.75
2023-04-11T07:47:44.152Z,3.10
2023-04-11T07:50:11.234Z,3.10
2023-04-11T07:52:37.821Z,3.50
2023-04-11T07:55:04.975Z,2.65
2023-04-11T07:57:31.757Z,3.50
2023-04-11T08:00:01.730Z,3.05
2023-04-11T08:02:28.538Z,3.17
2023-04-11T08:04:55.541Z,2.78
2023-04-11T08:07:22.213Z,2.95
2023-04-11T08:09:48.777Z,3.20
2023-04-11T08:12:16.528Z,2.85
2023-04-11T08:14:43.134Z,3.15
2023-04-11T08:17:21.061Z,2.90
2023-04-11T08:19:54.109Z,2.92
2023-04-11T08:22:20.734Z,2.92
2023-04-11T08:24:47.322Z,2.05
2023-04-11T08:27:13.936Z,2.80
2023-04-11T08:29:40.582Z,3.53
2023-04-11T08:32:07.178Z,3.20
2023-04-11T08:34:33.952Z,2.88
2023-04-11T08:37:00.689Z,2.97
2023-04-11T08:39:27.297Z,3.30
2023-04-11T08:41:53.941Z,2.92
2023-04-11T08:44:21.195Z,2.38
2023-04-11T08:46:48.182Z,2.40
2023-04-11T08:49:14.851Z,3.03
2023-04-11T08:51:43.401Z,2.70
2023-04-11T08:54:10.397Z,2.03
2023-04-11T08:56:38.132Z,2.15
2023-04-11T08:59:04.713Z,2.67
2023-04-11T09:01:33.160Z,3.20
2023-04-11T09:04:01.252Z,2.95
2023-04-11T09:06:32.357Z,2.65
2023-04-11T09:08:59.880Z,2.55
2023-04-11T09:11:27.305Z,3.45
2023-04-11T09:14:08.190Z,2.78
2023-04-11T09:16:35.334Z,2.83
2023-04-11T09:19:02.127Z,2.80
2023-04-11T09:21:31.071Z,2.40
2023-04-11T09:24:17.738Z,2.60
2023-04-11T09:26:44.578Z,3.00
2023-04-11T09:29:11.361Z,3.38
2023-04-11T09:31:42.436Z,3.63
2023-04-11T09:34:09.414Z,3.95
2023-04-11T09:36:35.998Z,2.70
2023-04-11T09:39:18.953Z,3.47
2023-04-11T09:41:46.238Z,3.50
2023-04-11T09:44:13.271Z,4.35
2023-04-11T09:46:59.141Z,3.80
2023-04-11T09:49:26.062Z,3.72
2023-04-11T09:51:52.890Z,3.60
2023-04-11T09:54:22.706Z,2.97
2023-04-11T09:56:50.174Z,4.38
2023-04-11T09:59:17.249Z,3.72
2023-04-11T10:01:44.241Z,3.47
2023-04-11T10:04:11.398Z,4.28
2023-04-11T10:07:02.005Z,4.15
2023-04-11T10:09:29.727Z,4.13
2023-04-11T10:11:56.770Z,4.00
2023-04-11T10:14:38.381Z,4.43
2023-04-11T10:17:21.320Z,3.65
2023-04-11T10:19:51.510Z,3.40
2023-04-11T10:22:59.823Z,4.03
2023-04-11T10:25:27.027Z,4.25
2023-04-11T10:28:06.354Z,4.32
2023-04-11T10:30:42.136Z,3.40
2023-04-11T10:33:19.623Z,5.20
2023-04-11T10:36:05.816Z,4.25
2023-04-11T10:38:41.754Z,4.68
2023-04-11T10:41:34.679Z,4.20
2023-04-11T10:44:20.535Z,3.67
2023-04-11T10:46:56.154Z,3.72
2023-04-11T10:49:40.293Z,3.85
2023-04-11T10:52:21.894Z,3.97
2023-04-11T10:54:53.626Z,4.30
2023-04-11T10:57:21.446Z,3.65
2023-04-11T10:59:50.853Z,4.28
2023-04-11T11:02:19.421Z,3.60
2023-04-11T11:04:47.257Z,4.05
2023-04-11T11:07:17.872Z,3.90
2023-04-11T11:09:49.267Z,3.80
2023-04-11T11:12:17.126Z,3.38
2023-04-11T11:14:45.922Z,4.43
2023-04-11T11:17:14.275Z,3.20
2023-04-11T11:19:45.216Z,3.13
2023-04-11T11:22:25.297Z,3.08
2023-04-11T11:24:52.430Z,3.60
2023-04-11T11:27:22.383Z,3.78
2023-04-11T11:29:49.319Z,4.32
2023-04-11T11:32:26.249Z,3.53
2023-04-11T11:34:53.301Z,3.50
2023-04-11T11:37:21.245Z,3.35
2023-04-11T11:39:49.057Z,3.25
2023-04-11T11:42:15.925Z,3.00
2023-04-11T11:44:42.743Z,3.17
2023-04-11T11:47:17.617Z,3.38
2023-04-11T11:49:46.391Z,2.75
2023-04-11T11:52:30.864Z,2.63
2023-04-11T11:54:57.506Z,2.72
2023-04-11T11:57:24.153Z,3.15
2023-04-11T11:59:58.240Z,3.00
2023-04-11T12:02:26.598Z,2.40
2023-04-11T12:05:00.791Z,3.40
2023-04-11T12:07:32.738Z,3.25
2023-04-11T12:10:06.189Z,3.03
2023-04-11T12:12:37.384Z,2.90
2023-04-11T12:15:10.366Z,2.72
2023-04-11T12:17:38.016Z,2.70
2023-04-11T12:20:08.640Z,2.97
2023-04-11T12:22:35.765Z,2.83
2023-04-11T12:25:12.235Z,2.58
2023-04-11T12:27:41.604Z,2.88
2023-04-11T12:30:09.757Z,2.53
2023-04-11T12:32:36.665Z,3.30
2023-04-11T12:35:05.741Z,3.00
2023-04-11T12:37:33.335Z,2.80
2023-04-11T12:40:00.477Z,2.90
2023-04-11T12:42:27.630Z,2.97
2023-04-11T12:44:54.598Z,2.85
2023-04-11T12:47:21.286Z,2.70
2023-04-11T12:49:47.892Z,3.25
2023-04-11T12:52:14.593Z,6.30
2023-04-11T12:54:41.316Z,2.80
2023-04-11T12:57:07.983Z,3.60
2023-04-11T12:59:34.833Z,2.80
2023-04-11T13:02:01.736Z,3.60
2023-04-11T13:04:28.729Z,2.83
2023-04-11T13:07:00.693Z,2.90
2023-04-11T13:09:34.222Z,2.80
2023-04-11T13:12:03.717Z,2.55
2023-04-11T13:14:30.616Z,2.45
2023-04-11T13:16:57.404Z,2.10
2023-04-11T13:19:24.269Z,2.20
2023-04-11T13:21:50.998Z,1.90
2023-04-11T13:24:17.643Z,2.20
2023-04-11T13:26:44.933Z,2.20
2023-04-11T13:29:14.591Z,3.15
2023-04-11T13:31:41.310Z,2.00
2023-04-11T13:34:07.940Z,1.60
2023-04-11T13:36:35.415Z,2.15
2023-04-11T13:39:02.252Z,1.88
2023-04-11T13:41:28.857Z,1.65
2023-04-11T13:43:55.452Z,1.80
2023-04-11T13:46:22.076Z,1.80
2023-04-11T13:48:48.775Z,2.00
2023-04-11T13:51:15.490Z,1.92
2023-04-11T13:53:42.097Z,2.05
2023-04-11T13:56:08.839Z,1.65
2023-04-11T13:58:35.476Z,2.22
2023-04-11T14:01:02.253Z,2.03
2023-04-11T14:03:33.469Z,1.73
2023-04-11T14:06:01.162Z,1.58
2023-04-11T14:08:28.678Z,1.90
2023-04-11T14:10:55.533Z,2.53
2023-04-11T14:13:22.168Z,1.80
2023-04-11T14:15:52.189Z,2.40
2023-04-11T14:18:27.873Z,3.25
2023-04-11T14:20:56.551Z,1.88
2023-04-11T14:23:23.244Z,2.20
2023-04-11T14:25:50.597Z,2.25
2023-04-11T14:28:18.196Z,1.67
2023-04-11T14:30:44.964Z,2.20
2023-04-11T14:33:11.749Z,2.50
2023-04-11T14:35:38.382Z,2.03
2023-04-11T14:38:05.555Z,2.03
2023-04-11T14:40:32.167Z,2.22
2023-04-11T14:42:58.834Z,1.75
2023-04-11T14:45:25.668Z,1.70
2023-04-11T14:47:52.398Z,1.55
2023-04-11T14:50:19.225Z,2.65
2023-04-11T14:52:48.076Z,1.67
2023-04-11T14:55:14.689Z,1.75
2023-04-11T14:57:55.422Z,2.22
2023-04-11T15:00:24.624Z,1.67
2023-04-11T15:02:55.028Z,2.33
2023-04-11T15:05:23.086Z,1.90
2023-04-11T15:07:52.003Z,1.58
2023-04-11T15:10:21.494Z,1.98
2023-04-11T15:12:48.370Z,1.60
2023-04-11T15:15:15.631Z,2.15
2023-04-11T15:17:45.041Z,1.80
2023-04-11T15:20:12.337Z,1.77
2023-04-11T15:22:41.284Z,2.10
2023-04-11T15:25:10.475Z,1.98
2023-04-11T15:27:37.187Z,1.75
2023-04-11T15:30:04.772Z,1.63
2023-04-11T15:32:31.708Z,2.40
2023-04-11T15:34:59.113Z,1.55
2023-04-11T15:37:26.316Z,2.47
2023-04-11T15:39:53.084Z,2.63
2023-04-11T15:42:19.650Z,1.70
2023-04-11T15:44:46.347Z,1.60
2023-04-11T15:47:13.129Z,1.85
2023-04-11T15:49:39.838Z,2.50
2023-04-11T15:52:06.974Z,2.00
2023-04-11T15:54:33.703Z,1.73
2023-04-11T15:57:01.678Z,1.73
2023-04-11T15:59:28.414Z,2.35
2023-04-11T16:01:55.148Z,2.10
2023-04-11T16:04:21.973Z,4.93
2023-04-11T16:06:49.030Z,1.77
2023-04-11T16:09:16.218Z,2.05
2023-04-11T16:11:42.948Z,2.03
2023-04-11T16:14:11.037Z,2.08
2023-04-11T16:16:37.834Z,1.83
2023-04-11T16:19:05.112Z,2.50
2023-04-11T16:21:31.792Z,1.52
2023-04-11T16:23:58.832Z,2.00
2023-04-11T16:26:26.828Z,2.20
2023-04-11T16:28:53.402Z,2.33
2023-04-11T16:31:24.286Z,1.50
2023-04-11T16:33:52.651Z,1.70
2023-04-11T16:36:20.503Z,1.85
2023-04-11T16:38:49.517Z,1.83
2023-04-11T16:41:19.638Z,1.50
2023-04-11T16:43:46.282Z,1.70
2023-04-11T16:46:14.124Z,2.13
2023-04-11T16:48:41.824Z,1.75
2023-04-11T16:51:10.881Z,1.40
2023-04-11T16:53:38.266Z,1.80
2023-04-11T16:56:05.404Z,1.40
2023-04-11T16:58:32.194Z,1.50
2023-04-11T17:01:00.309Z,1.65
2023-04-11T17:03:27.376Z,1.90
2023-04-11T17:05:54.160Z,1.35
2023-04-11T17:08:21.030Z,1.77
2023-04-11T17:10:47.652Z,1.60
2023-04-11T17:13:15.791Z,1.48
2023-04-11T17:15:42.387Z,1.75
2023-04-11T17:18:08.986Z,1.80
2023-04-11T17:20:35.980Z,1.50
2023-04-11T17:23:02.716Z,1.65
2023-04-11T17:25:29.977Z,1.50
2023-04-11T17:27:57.366Z,1.80
2023-04-11T17:30:24.032Z,2.08
2023-04-11T17:32:50.753Z,2.30
2023-04-11T17:35:17.497Z,2.90
2023-04-11T17:37:44.096Z,4.07
2023-04-11T17:40:12.590Z,1.45
2023-04-11T17:42:40.008Z,3.30
2023-04-11T17:45:16.535Z,2.03
2023-04-11T17:47:44.761Z,1.33
2023-04-11T17:50:13.271Z,4.00
2023-04-11T17:52:44.542Z,2.00
2023-04-11T17:55:12.944Z,2.50
2023-04-11T17:57:39.850Z,2.42
2023-04-11T18:00:24.055Z,2.13
2023-04-11T18:02:54.460Z,1.90
2023-04-11T18:05:24.856Z,1.95
2023-04-11T18:07:54.094Z,2.13
2023-04-11T18:10:21.787Z,1.80
2023-04-11T18:12:51.398Z,2.00
2023-04-11T18:15:18.582Z,2.22
2023-04-11T18:17:45.511Z,1.83
2023-04-11T18:20:13.187Z,1.77
2023-04-11T18:22:42.373Z,1.60
2023-04-11T18:25:09.478Z,1.60
2023-04-11T18:27:37.147Z,1.45
2023-04-11T18:30:07.264Z,1.52
2023-04-11T18:32:40.332Z,1.83
2023-04-11T18:35:11.277Z,2.35
2023-04-11T18:37:40.390Z,1.58
2023-04-11T18:40:11.769Z,2.13
2023-04-11T18:42:49.765Z,1.65
2023-04-11T18:45:20.134Z,1.40
2023-04-11T18:47:47.003Z,1.58
2023-04-11T18:50:14.742Z,1.60
2023-04-11T18:52:41.590Z,2.08
2023-04-11T18:55:09.929Z,1.60
2023-04-11T18:57:38.110Z,1.45
2023-04-11T19:00:13.213Z,2.22
2023-04-11T19:02:41.337Z,1.67
2023-04-11T19:05:13.370Z,1.75
2023-04-11T19:07:42.164Z,1.75
2023-04-11T19:10:10.162Z,2.08
2023-04-11T19:12:37.397Z,2.35
2023-04-11T19:15:07.569Z,2.13
2023-04-11T19:17:36.003Z,2.17
2023-04-11T19:20:06.674Z,2.33
2023-04-11T19:22:34.549Z,2.03
2023-04-11T19:25:01.277Z,1.75
2023-04-11T19:27:27.951Z,1.90
2023-04-11T19:29:54.605Z,1.45
2023-04-11T19:32:21.174Z,1.58
2023-04-11T19:34:49.398Z,1.75
2023-04-11T19:37:19.050Z,1.80
2023-04-11T19:39:45.735Z,1.63
2023-04-11T19:42:12.474Z,1.67
2023-04-11T19:44:39.660Z,2.20
2023-04-11T19:47:06.396Z,1.65
2023-04-11T19:49:33.038Z,1.40
2023-04-11T19:51:59.626Z,1.58
2023-04-11T19:54:26.191Z,1.40
2023-04-11T19:56:53.339Z,1.33
2023-04-11T19:59:20.247Z,2.00
2023-04-11T20:01:47.071Z,1.52
2023-04-11T20:04:15.598Z,1.70
2023-04-11T20:06:44.078Z,1.40
2023-04-11T20:09:11.543Z,2.10
2023-04-11T20:11:39.130Z,1.70
2023-04-11T20:14:06.622Z,1.90
2023-04-11T20:16:33.518Z,2.35
2023-04-11T20:19:01.794Z,2.28
2023-04-11T20:21:28.466Z,1.88
2023-04-11T20:23:55.233Z,2.00
2023-04-11T20:26:22.369Z,1.80
2023-04-11T20:28:50.253Z,1.90
2023-04-11T20:31:16.958Z,1.92
2023-04-11T20:33:44.148Z,1.65
2023-04-11T20:36:11.301Z,1.88
2023-04-11T20:38:37.988Z,1.90
2023-04-11T20:41:05.575Z,2.03
2023-04-11T20:43:32.363Z,1.92
2023-04-11T20:45:59.034Z,1.67
2023-04-11T20:48:25.785Z,1.50
2023-04-11T20:50:55.635Z,1.52
2023-04-11T20:53:22.242Z,1.77
2023-04-11T20:55:48.928Z,2.03
2023-04-11T20:58:18.450Z,1.65
2023-04-11T21:00:45.349Z,2.00
2023-04-11T21:03:12.380Z,1.77
2023-04-11T21:05:43.944Z,1.92
2023-04-11T21:08:13.778Z,1.83
2023-04-11T21:10:40.645Z,1.80
2023-04-11T21:13:07.284Z,1.52
2023-04-11T21:15:34.533Z,1.50
2023-04-11T21:18:01.223Z,1.60
2023-04-11T21:20:27.886Z,1.80
2023-04-11T21:22:54.661Z,1.60
2023-04-11T21:25:21.897Z,1.35
2023-04-11T21:27:49.717Z,1.63
2023-04-11T21:30:16.343Z,1.60
2023-04-11T21:32:43.092Z,1.58
2023-04-11T21:35:11.208Z,1.52
2023-04-11T21:37:38.257Z,1.42
2023-04-11T21:40:05.494Z,1.73
2023-04-11T21:42:32.114Z,1.55
2023-04-11T21:44:58.727Z,1.55
2023-04-11T21:47:25.550Z,1.30
2023-04-11T21:49:52.298Z,1.70
2023-04-11T21:52:18.985Z,1.42
2023-04-11T21:54:46.879Z,1.23
2023-04-11T21:57:13.562Z,1.63
2023-04-11T21:59:40.263Z,1.50
2023-04-11T22:02:07.014Z,1.50
2023-04-11T22:04:47.564Z,1.65
2023-04-11T22:07:26.404Z,1.77
2023-04-11T22:09:59.600Z,1.67
2023-04-11T22:12:26.894Z,1.20
2023-04-11T22:14:56.584Z,1.10
2023-04-11T22:17:23.710Z,1.77
2023-04-11T22:19:50.312Z,1.38
2023-04-11T22:22:20.190Z,1.73
2023-04-11T22:24:46.815Z,0.93
2023-04-11T22:27:13.573Z,1.92
2023-04-11T22:29:41.223Z,1.10
2023-04-11T22:32:08.178Z,0.88
2023-04-11T22:34:35.002Z,1.98
2023-04-11T22:37:01.581Z,1.60
2023-04-11T22:39:28.183Z,1.10
2023-04-11T22:41:55.324Z,1.38
2023-04-11T22:44:21.941Z,1.63
2023-04-11T22:47:06.487Z,1.40
2023-04-11T22:49:40.568Z,1.50
2023-04-11T22:52:14.748Z,1.73
2023-04-11T22:54:42.544Z,1.27
2023-04-11T22:57:09.520Z,1.40
2023-04-11T22:59:36.726Z,1.70
2023-04-11T23:02:03.697Z,1.70
2023-04-11T23:04:32.078Z,1.85
2023-04-11T23:06:59.031Z,1.35
2023-04-11T23:09:26.164Z,1.58
2023-04-11T23:11:53.305Z,1.10
2023-04-11T23:14:22.044Z,0.93
2023-04-11T23:16:48.947Z,1.73
2023-04-11T23:19:17.048Z,1.25
2023-04-11T23:21:44.436Z,1.60
2023-04-11T23:24:11.083Z,1.10
2023-04-11T23:26:37.716Z,1.25
2023-04-11T23:29:04.626Z,1.75
2023-04-11T23:31:32.518Z,1.27
2023-04-11T23:34:00.344Z,1.40
2023-04-11T23:36:27.831Z,1.40
2023-04-11T23:38:54.536Z,1.25
2023-04-11T23:41:21.193Z,1.08
2023-04-11T23:43:47.825Z,1.55
2023-04-11T23:46:14.630Z,1.58
2023-04-11T23:48:41.420Z,1.05
2023-04-11T23:51:08.232Z,1.30
2023-04-11T23:53:34.912Z,1.30
2023-04-11T23:56:01.633Z,1.42
2023-04-11T23:58:28.249Z,1.40
